Terminal Aerodrome Forecast
Issued by NWS

Home | Current Version | Previous Version | Text Only | Print | Product List | Glossary On
Versions: 1 2 3 4 5 6 7 8 9 10 11 12 13 14
144
FTUS46 KMFR 041740
TAFRBG
TAF
KRBG 041740Z 0418/0518 02013KT P6SM -RA VCSH SCT012 BKN080 OVC100
     FM042100 36011KT P6SM -SHRA SCT015 OVC025
     FM050400 35004KT P6SM VCSH OVC015=

USA.gov is the U.S. government's official web portal to all federal, state and local government web resources and services.